Time;durP1;ratioP1;P1;durP2;ratioP2;P2;SDS_P1;SDS_P2;PMS_P1;PMS_P2;Temp;Humidity;BMP_temperature;BMP_pressure;BME280_temperature;BME280_humidity;BME280_pressure;Samples;Min_cycle;Max_cycle;Signal;HPM_P1;HPM_P2
2023/05/22 00:01:13;;;;;;;5.13;2.60;;;;;;;;;;5008014;28;20483;-64
2023/05/22 00:03:43;;;;;;;5.20;2.72;;;;;;;;;;5001028;28;20129;-63
2023/05/22 00:06:11;;;;;;;5.60;2.20;;;;;;;;;;5004503;28;20088;-62
2023/05/22 00:08:40;;;;;;;4.88;2.20;;;;;;;;;;5007309;28;20085;-62
2023/05/22 00:11:08;;;;;;;3.47;1.65;;;;;;;;;;5009026;28;20133;-62
2023/05/22 00:13:36;;;;;;;4.68;2.08;;;;;;;;;;5008589;28;20053;-64
2023/05/22 00:16:05;;;;;;;4.05;2.60;;;;;;;;;;5003268;28;20145;-63
2023/05/22 00:18:33;;;;;;;7.22;1.85;;;;;;;;;;5005540;28;20092;-62
2023/05/22 00:21:03;;;;;;;4.45;2.10;;;;;;;;;;5008659;28;20119;-62
2023/05/22 00:23:32;;;;;;;7.13;2.88;;;;;;;;;;5003363;28;20049;-66
2023/05/22 00:26:00;;;;;;;4.95;2.35;;;;;;;;;;5008621;28;20042;-64
2023/05/22 00:28:28;;;;;;;5.32;1.80;;;;;;;;;;5005385;28;20434;-66
2023/05/22 00:30:57;;;;;;;6.57;2.33;;;;;;;;;;4996710;28;20049;-62
2023/05/22 00:33:25;;;;;;;4.30;2.28;;;;;;;;;;5005419;28;20261;-62
2023/05/22 00:35:54;;;;;;;6.35;2.80;;;;;;;;;;5006308;28;20677;-62
2023/05/22 00:38:31;;;;;;;4.13;1.85;;;;;;;;;;5002101;28;20092;-61
2023/05/22 00:41:00;;;;;;;5.28;2.72;;;;;;;;;;5008565;28;20133;-64
2023/05/22 00:43:28;;;;;;;7.65;2.35;;;;;;;;;;5007768;28;20053;-62
2023/05/22 00:45:57;;;;;;;3.40;1.77;;;;;;;;;;5006916;28;20046;-64
2023/05/22 00:48:25;;;;;;;6.20;2.25;;;;;;;;;;5007842;28;20410;-61
2023/05/22 00:50:54;;;;;;;3.05;1.88;;;;;;;;;;5008453;28;20054;-64
2023/05/22 00:53:24;;;;;;;3.63;2.00;;;;;;;;;;5003064;28;20540;-63
2023/05/22 00:55:55;;;;;;;5.10;1.50;;;;;;;;;;5008152;28;20034;-61
2023/05/22 00:58:25;;;;;;;7.40;2.35;;;;;;;;;;5000990;28;20454;-62
2023/05/22 01:00:54;;;;;;;3.80;1.92;;;;;;;;;;5003920;28;20144;-62
2023/05/22 01:03:24;;;;;;;18.55;2.40;;;;;;;;;;5025084;23;20089;-67
2023/05/22 01:05:55;;;;;;;9.40;2.58;;;;;;;;;;5014522;28;20046;-67
2023/05/22 01:08:23;;;;;;;5.78;2.30;;;;;;;;;;5013772;28;20050;-67
2023/05/22 01:10:54;;;;;;;4.50;2.60;;;;;;;;;;5014341;28;20077;-66
2023/05/22 01:13:29;;;;;;;5.28;2.30;;;;;;;;;;5012992;28;20200;-66
2023/05/22 01:16:02;;;;;;;3.88;1.45;;;;;;;;;;5014134;28;20092;-66
2023/05/22 01:18:32;;;;;;;8.05;2.33;;;;;;;;;;5013309;28;20053;-67
2023/05/22 01:21:04;;;;;;;3.42;1.98;;;;;;;;;;5013862;28;20045;-66
2023/05/22 01:23:43;;;;;;;4.10;2.67;;;;;;;;;;5014311;28;20053;-66
2023/05/22 01:26:35;;;;;;;4.63;2.40;;;;;;;;;;5013323;28;20092;-67
2023/05/22 01:29:11;;;;;;;8.27;2.60;;;;;;;;;;5003443;28;20463;-68
2023/05/22 01:31:42;;;;;;;4.90;2.20;;;;;;;;;;5012702;28;20049;-67
2023/05/22 01:34:11;;;;;;;3.35;1.80;;;;;;;;;;4998670;28;20133;-66
2023/05/22 01:36:40;;;;;;;5.03;2.42;;;;;;;;;;5017944;28;20521;-69
2023/05/22 01:39:09;;;;;;;2.67;1.70;;;;;;;;;;5026212;28;20107;-66
2023/05/22 01:41:37;;;;;;;5.47;2.20;;;;;;;;;;5025602;28;20061;-66
2023/05/22 01:44:06;;;;;;;5.68;2.20;;;;;;;;;;5028986;28;20099;-66
2023/05/22 01:46:35;;;;;;;4.43;2.03;;;;;;;;;;5040934;28;20044;-67
2023/05/22 01:49:04;;;;;;;6.10;2.05;;;;;;;;;;5044636;28;20126;-65
2023/05/22 01:51:40;;;;;;;4.43;1.77;;;;;;;;;;5041201;28;20482;-68
2023/05/22 01:54:16;;;;;;;3.33;2.00;;;;;;;;;;5047042;28;20100;-67
2023/05/22 01:56:48;;;;;;;4.18;1.75;;;;;;;;;;5047051;28;20045;-66
2023/05/22 01:59:21;;;;;;;4.78;2.47;;;;;;;;;;5048835;28;20080;-66
2023/05/22 02:01:51;;;;;;;4.80;1.80;;;;;;;;;;5046501;28;20053;-66
2023/05/22 02:04:22;;;;;;;6.07;2.38;;;;;;;;;;5047785;28;20049;-65
2023/05/22 02:06:52;;;;;;;4.45;2.17;;;;;;;;;;5038089;28;20073;-66
2023/05/22 02:09:22;;;;;;;7.78;2.20;;;;;;;;;;5035911;28;20585;-66
2023/05/22 02:11:52;;;;;;;4.57;2.03;;;;;;;;;;5041803;28;20037;-66
2023/05/22 02:14:21;;;;;;;5.80;1.88;;;;;;;;;;5035883;28;20413;-66
2023/05/22 02:16:49;;;;;;;5.45;2.67;;;;;;;;;;5045231;28;20494;-66
2023/05/22 02:19:17;;;;;;;4.78;2.80;;;;;;;;;;5039587;28;20094;-66
2023/05/22 02:21:47;;;;;;;6.40;2.25;;;;;;;;;;5044031;28;20037;-65
2023/05/22 02:24:16;;;;;;;8.02;2.65;;;;;;;;;;5046727;28;20097;-66
2023/05/22 02:26:44;;;;;;;5.05;2.30;;;;;;;;;;5048541;28;20514;-66
2023/05/22 02:29:12;;;;;;;6.00;2.08;;;;;;;;;;5044274;28;20041;-65
2023/05/22 02:31:41;;;;;;;3.67;1.80;;;;;;;;;;5043087;28;20041;-65
2023/05/22 02:34:09;;;;;;;5.25;1.70;;;;;;;;;;5050504;28;20055;-66
2023/05/22 02:36:38;;;;;;;7.10;2.22;;;;;;;;;;5047925;28;20144;-65
2023/05/22 02:39:08;;;;;;;5.57;2.90;;;;;;;;;;5050358;28;20095;-67
2023/05/22 02:41:38;;;;;;;5.15;1.80;;;;;;;;;;5050310;28;20076;-67
2023/05/22 02:44:07;;;;;;;7.70;2.40;;;;;;;;;;5041435;28;20562;-67
2023/05/22 02:46:35;;;;;;;4.57;2.60;;;;;;;;;;5049606;28;20053;-65
2023/05/22 02:49:03;;;;;;;4.88;2.10;;;;;;;;;;5050571;28;20094;-68
2023/05/22 02:51:32;;;;;;;8.48;2.63;;;;;;;;;;5042717;28;20116;-66
2023/05/22 02:54:00;;;;;;;4.72;1.90;;;;;;;;;;5041282;28;20090;-66
2023/05/22 02:56:30;;;;;;;6.07;2.75;;;;;;;;;;5041973;28;20081;-65
2023/05/22 02:58:58;;;;;;;4.15;1.75;;;;;;;;;;5037375;28;20077;-66
2023/05/22 03:01:29;;;;;;;5.47;2.50;;;;;;;;;;5046302;28;20045;-66
2023/05/22 03:03:57;;;;;;;2.25;1.67;;;;;;;;;;5043422;28;20072;-66
2023/05/22 03:06:26;;;;;;;3.03;2.25;;;;;;;;;;5046247;28;20467;-65
2023/05/22 03:08:54;;;;;;;3.95;1.77;;;;;;;;;;5050344;28;20056;-65
2023/05/22 03:11:22;;;;;;;4.80;2.58;;;;;;;;;;5041880;28;20099;-65
2023/05/22 03:13:52;;;;;;;8.43;3.00;;;;;;;;;;5043537;28;20049;-67
2023/05/22 03:16:20;;;;;;;6.15;2.17;;;;;;;;;;5037111;28;20053;-66
2023/05/22 03:18:52;;;;;;;3.92;1.75;;;;;;;;;;5047320;28;20049;-66
2023/05/22 03:21:20;;;;;;;5.22;2.28;;;;;;;;;;5047344;28;20482;-67
2023/05/22 03:23:48;;;;;;;2.92;1.73;;;;;;;;;;5048757;28;20041;-66
2023/05/22 03:26:17;;;;;;;5.63;2.63;;;;;;;;;;5047039;28;20113;-67
2023/05/22 03:28:45;;;;;;;3.25;1.90;;;;;;;;;;5049716;28;20151;-66
2023/05/22 03:31:16;;;;;;;7.80;1.85;;;;;;;;;;5047471;28;20129;-67
2023/05/22 03:33:45;;;;;;;3.42;1.75;;;;;;;;;;5044005;28;20045;-65
2023/05/22 03:36:13;;;;;;;13.55;3.10;;;;;;;;;;5042887;28;20041;-67
2023/05/22 03:38:41;;;;;;;7.75;3.17;;;;;;;;;;5040765;28;20131;-66
2023/05/22 03:41:10;;;;;;;4.25;1.98;;;;;;;;;;5042314;28;20099;-67
2023/05/22 03:43:38;;;;;;;2.85;1.70;;;;;;;;;;5048035;28;20045;-66
2023/05/22 03:46:07;;;;;;;4.03;2.17;;;;;;;;;;5046867;28;20048;-67
2023/05/22 03:48:36;;;;;;;8.43;3.15;;;;;;;;;;5048209;28;20053;-66
2023/05/22 03:51:05;;;;;;;8.23;2.33;;;;;;;;;;5046506;28;20049;-67
2023/05/22 03:53:33;;;;;;;5.78;1.95;;;;;;;;;;5048170;28;20045;-65
2023/05/22 03:56:01;;;;;;;11.27;2.45;;;;;;;;;;5048871;28;20160;-66
2023/05/22 03:58:30;;;;;;;5.93;2.35;;;;;;;;;;5044811;28;20506;-66
2023/05/22 04:00:59;;;;;;;5.13;2.17;;;;;;;;;;5044504;28;20045;-67
2023/05/22 04:03:28;;;;;;;2.10;1.60;;;;;;;;;;5047114;28;20060;-66
2023/05/22 04:05:58;;;;;;;7.10;2.88;;;;;;;;;;5046672;28;20087;-67
2023/05/22 04:08:29;;;;;;;4.60;2.55;;;;;;;;;;5046503;28;20469;-67
2023/05/22 04:10:58;;;;;;;4.35;2.00;;;;;;;;;;5039828;28;20114;-65
2023/05/22 04:13:26;;;;;;;3.63;2.03;;;;;;;;;;5048963;28;20482;-66
2023/05/22 04:15:55;;;;;;;2.67;2.20;;;;;;;;;;5045746;28;20049;-67
2023/05/22 04:18:24;;;;;;;4.65;2.60;;;;;;;;;;5044369;28;20053;-66
2023/05/22 04:20:52;;;;;;;4.68;2.20;;;;;;;;;;5044992;28;20466;-65
2023/05/22 04:23:22;;;;;;;5.65;2.42;;;;;;;;;;5045481;28;20104;-67
2023/05/22 04:25:50;;;;;;;5.32;2.58;;;;;;;;;;5047653;28;20091;-65
2023/05/22 04:28:21;;;;;;;4.55;1.90;;;;;;;;;;5043592;28;20083;-65
2023/05/22 04:30:49;;;;;;;3.90;1.80;;;;;;;;;;5036891;28;20056;-68
2023/05/22 04:33:18;;;;;;;8.30;2.88;;;;;;;;;;5037781;28;20801;-65
2023/05/22 04:35:47;;;;;;;4.70;1.60;;;;;;;;;;5040075;28;20041;-65
2023/05/22 04:38:17;;;;;;;4.43;2.45;;;;;;;;;;5047202;28;20045;-69
2023/05/22 04:40:47;;;;;;;5.47;1.92;;;;;;;;;;5042697;28;20382;-66
2023/05/22 04:43:17;;;;;;;2.42;1.38;;;;;;;;;;5047988;28;20045;-66
2023/05/22 04:45:46;;;;;;;4.22;2.42;;;;;;;;;;5039179;28;20410;-66
2023/05/22 04:48:14;;;;;;;5.80;2.58;;;;;;;;;;5043380;28;20130;-67
2023/05/22 04:50:45;;;;;;;6.50;2.13;;;;;;;;;;5044037;28;20087;-66
2023/05/22 04:53:13;;;;;;;4.47;2.90;;;;;;;;;;5045973;28;20045;-69
2023/05/22 04:55:41;;;;;;;3.67;2.58;;;;;;;;;;5044362;28;20307;-66
2023/05/22 04:58:11;;;;;;;2.72;1.90;;;;;;;;;;5044416;28;20068;-67
2023/05/22 05:00:40;;;;;;;4.72;2.28;;;;;;;;;;5042216;28;20073;-67
2023/05/22 05:03:10;;;;;;;5.65;2.92;;;;;;;;;;5038297;28;20045;-67
2023/05/22 05:05:39;;;;;;;2.92;1.75;;;;;;;;;;5043753;28;20080;-66
2023/05/22 05:08:07;;;;;;;5.80;2.20;;;;;;;;;;5045660;28;20079;-68
2023/05/22 05:10:35;;;;;;;4.55;2.13;;;;;;;;;;5042093;28;20461;-65
2023/05/22 05:13:04;;;;;;;6.18;2.38;;;;;;;;;;5046884;28;20049;-65
2023/05/22 05:15:33;;;;;;;5.03;2.00;;;;;;;;;;5046415;28;20048;-69
2023/05/22 05:18:02;;;;;;;5.60;2.25;;;;;;;;;;5043857;28;20053;-66
2023/05/22 05:20:30;;;;;;;3.10;1.88;;;;;;;;;;5040458;28;20445;-66
2023/05/22 05:22:59;;;;;;;4.28;2.17;;;;;;;;;;5046020;28;20076;-66
2023/05/22 05:25:27;;;;;;;4.45;2.05;;;;;;;;;;5043257;28;20053;-65
2023/05/22 05:27:56;;;;;;;5.57;2.45;;;;;;;;;;5042150;28;20573;-65
2023/05/22 05:30:24;;;;;;;8.98;2.35;;;;;;;;;;5039119;28;20509;-67
2023/05/22 05:32:54;;;;;;;4.72;2.70;;;;;;;;;;5044575;28;20048;-66
2023/05/22 05:35:23;;;;;;;4.65;2.33;;;;;;;;;;5044902;28;20110;-65
2023/05/22 05:37:52;;;;;;;4.00;2.08;;;;;;;;;;5037544;28;20085;-65
2023/05/22 05:40:20;;;;;;;3.55;2.10;;;;;;;;;;5041167;28;20045;-65
2023/05/22 05:42:48;;;;;;;9.20;2.17;;;;;;;;;;5043434;28;20041;-66
2023/05/22 05:45:17;;;;;;;5.32;2.45;;;;;;;;;;5038044;28;20065;-66
2023/05/22 05:47:45;;;;;;;3.00;1.65;;;;;;;;;;5032101;28;20045;-66
2023/05/22 05:50:15;;;;;;;5.53;1.85;;;;;;;;;;5035335;28;20057;-66
2023/05/22 05:52:43;;;;;;;5.63;2.55;;;;;;;;;;5030075;28;20132;-65
2023/05/22 05:55:12;;;;;;;3.65;1.60;;;;;;;;;;5047127;28;20428;-65
2023/05/22 05:57:40;;;;;;;3.60;1.83;;;;;;;;;;5050793;28;20537;-67
2023/05/22 06:00:10;;;;;;;5.90;2.83;;;;;;;;;;5050855;28;20386;-66
2023/05/22 06:02:38;;;;;;;4.32;1.73;;;;;;;;;;5048766;28;20112;-66
2023/05/22 06:05:07;;;;;;;3.53;1.42;;;;;;;;;;5052413;28;20040;-66
2023/05/22 06:07:38;;;;;;;5.35;2.75;;;;;;;;;;5045295;28;20045;-66
2023/05/22 06:10:08;;;;;;;7.55;2.58;;;;;;;;;;5042060;28;20052;-67
2023/05/22 06:12:36;;;;;;;6.00;2.63;;;;;;;;;;5049964;28;20072;-66
2023/05/22 06:15:06;;;;;;;6.35;2.42;;;;;;;;;;5051620;28;20041;-66
2023/05/22 06:17:35;;;;;;;3.78;1.75;;;;;;;;;;5037886;28;20456;-66
2023/05/22 06:20:05;;;;;;;6.97;3.20;;;;;;;;;;5045628;28;20076;-68
2023/05/22 06:22:34;;;;;;;5.25;2.08;;;;;;;;;;5050806;28;20052;-67
2023/05/22 06:25:04;;;;;;;6.05;2.80;;;;;;;;;;5049962;28;20041;-68
2023/05/22 06:27:33;;;;;;;2.88;1.92;;;;;;;;;;5045985;28;20053;-67
2023/05/22 06:30:01;;;;;;;2.67;1.88;;;;;;;;;;5042117;28;20060;-67
2023/05/22 06:32:32;;;;;;;8.10;2.33;;;;;;;;;;5039074;28;20049;-68
2023/05/22 06:35:00;;;;;;;5.20;2.00;;;;;;;;;;5049897;28;20144;-67
2023/05/22 06:37:30;;;;;;;3.80;1.98;;;;;;;;;;5044120;28;20072;-67
2023/05/22 06:39:58;;;;;;;3.95;1.85;;;;;;;;;;5047211;28;20091;-67
2023/05/22 06:42:28;;;;;;;3.22;2.00;;;;;;;;;;5035060;28;20092;-68
2023/05/22 06:44:56;;;;;;;3.45;1.67;;;;;;;;;;5030682;28;20049;-67
2023/05/22 06:47:25;;;;;;;5.30;2.63;;;;;;;;;;5043137;28;20057;-68
2023/05/22 06:49:53;;;;;;;8.23;1.55;;;;;;;;;;5039327;28;20517;-67
2023/05/22 06:52:21;;;;;;;4.07;2.42;;;;;;;;;;5035561;28;20065;-67
2023/05/22 06:54:50;;;;;;;5.18;2.22;;;;;;;;;;5052319;28;20509;-67
2023/05/22 06:57:18;;;;;;;6.82;1.88;;;;;;;;;;5043259;28;20107;-67
2023/05/22 06:59:48;;;;;;;4.65;2.22;;;;;;;;;;5048153;28;20402;-67
2023/05/22 07:02:16;;;;;;;4.40;2.25;;;;;;;;;;5047319;28;20049;-67
2023/05/22 07:04:45;;;;;;;5.85;2.88;;;;;;;;;;5048799;28;20099;-68
2023/05/22 07:07:13;;;;;;;5.25;2.28;;;;;;;;;;5051791;28;20048;-67
2023/05/22 07:09:41;;;;;;;3.88;1.75;;;;;;;;;;5048543;28;20041;-68
2023/05/22 07:12:10;;;;;;;6.22;2.45;;;;;;;;;;5050886;28;20067;-67
2023/05/22 07:14:38;;;;;;;10.15;2.90;;;;;;;;;;5038594;28;20077;-68
2023/05/22 07:17:08;;;;;;;3.03;1.40;;;;;;;;;;5043783;28;20049;-67
2023/05/22 07:19:37;;;;;;;7.03;2.63;;;;;;;;;;5050103;28;20494;-66
2023/05/22 07:22:05;;;;;;;4.68;1.92;;;;;;;;;;5050173;28;20049;-67
2023/05/22 07:24:34;;;;;;;4.85;2.78;;;;;;;;;;5051794;28;20076;-67
2023/05/22 07:27:03;;;;;;;5.65;2.78;;;;;;;;;;5050903;28;20127;-67
2023/05/22 07:29:31;;;;;;;5.15;2.20;;;;;;;;;;5051349;28;20552;-67
2023/05/22 07:32:00;;;;;;;3.63;2.30;;;;;;;;;;5039045;28;20049;-68
2023/05/22 07:34:33;;;;;;;4.38;2.13;;;;;;;;;;5048588;28;20490;-67
2023/05/22 07:37:01;;;;;;;6.18;2.25;;;;;;;;;;5046244;28;20049;-68
2023/05/22 07:39:30;;;;;;;3.63;2.28;;;;;;;;;;5038399;28;20084;-68
2023/05/22 07:41:58;;;;;;;4.63;1.95;;;;;;;;;;5034432;28;20053;-65
2023/05/22 07:44:29;;;;;;;7.57;3.05;;;;;;;;;;5041064;28;20467;-65
2023/05/22 07:46:58;;;;;;;5.95;2.45;;;;;;;;;;5033403;28;20552;-66
2023/05/22 07:49:26;;;;;;;4.97;2.53;;;;;;;;;;5028979;28;20144;-66
2023/05/22 07:51:56;;;;;;;4.57;2.25;;;;;;;;;;5039401;28;20045;-66
2023/05/22 07:54:25;;;;;;;5.20;3.47;;;;;;;;;;5041938;28;20053;-68
2023/05/22 07:56:54;;;;;;;6.00;2.70;;;;;;;;;;5038643;28;20048;-68
2023/05/22 07:59:24;;;;;;;5.07;2.15;;;;;;;;;;5039966;28;20049;-67
2023/05/22 08:01:52;;;;;;;9.35;2.63;;;;;;;;;;5041645;28;20052;-67
2023/05/22 08:04:21;;;;;;;8.95;2.40;;;;;;;;;;5038291;28;20040;-66
2023/05/22 08:06:50;;;;;;;4.18;2.13;;;;;;;;;;5040143;28;20059;-68
2023/05/22 08:09:20;;;;;;;5.63;2.25;;;;;;;;;;5040831;28;20067;-67
2023/05/22 08:11:48;;;;;;;2.65;1.52;;;;;;;;;;5040156;28;20057;-66
2023/05/22 08:14:17;;;;;;;4.78;2.58;;;;;;;;;;5040462;28;20073;-65
2023/05/22 08:16:45;;;;;;;8.70;3.10;;;;;;;;;;5038481;28;20401;-64
2023/05/22 08:19:14;;;;;;;3.85;2.10;;;;;;;;;;5039884;28;20567;-67
2023/05/22 08:21:43;;;;;;;4.53;2.67;;;;;;;;;;5038799;28;20110;-66
2023/05/22 08:24:11;;;;;;;5.78;2.92;;;;;;;;;;5038681;28;20045;-66
2023/05/22 08:26:42;;;;;;;6.03;2.72;;;;;;;;;;5038189;28;20524;-65
2023/05/22 08:29:10;;;;;;;6.40;2.40;;;;;;;;;;5039505;28;20053;-66
2023/05/22 08:31:39;;;;;;;7.85;3.25;;;;;;;;;;5039968;28;20049;-66
2023/05/22 08:34:09;;;;;;;6.55;2.53;;;;;;;;;;5040061;28;20091;-66
2023/05/22 08:36:37;;;;;;;6.07;2.50;;;;;;;;;;5040202;28;20067;-67
2023/05/22 08:39:07;;;;;;;7.10;2.97;;;;;;;;;;5037220;28;20064;-67
2023/05/22 08:41:35;;;;;;;5.93;2.40;;;;;;;;;;5036057;28;20067;-66
2023/05/22 08:44:05;;;;;;;5.05;3.03;;;;;;;;;;5040763;28;20056;-69
2023/05/22 08:46:36;;;;;;;4.63;2.40;;;;;;;;;;5041136;28;20041;-69
2023/05/22 08:49:05;;;;;;;3.97;1.80;;;;;;;;;;5036131;28;20204;-66
2023/05/22 08:51:34;;;;;;;5.25;2.55;;;;;;;;;;5040376;28;20123;-66
2023/05/22 08:54:06;;;;;;;4.68;2.60;;;;;;;;;;5035907;28;20060;-66
2023/05/22 08:56:35;;;;;;;7.00;3.50;;;;;;;;;;5037248;28;20489;-67
2023/05/22 08:59:11;;;;;;;10.13;3.20;;;;;;;;;;5035851;28;20040;-66
2023/05/22 09:01:40;;;;;;;5.55;2.85;;;;;;;;;;5038964;28;20045;-69
2023/05/22 09:04:08;;;;;;;5.80;3.00;;;;;;;;;;5039706;28;20146;-66
2023/05/22 09:06:37;;;;;;;8.15;2.60;;;;;;;;;;5033529;28;20596;-66
2023/05/22 09:09:05;;;;;;;5.55;2.38;;;;;;;;;;5038239;28;20049;-66
2023/05/22 09:11:34;;;;;;;5.20;2.95;;;;;;;;;;5037744;28;20502;-67
2023/05/22 09:14:09;;;;;;;5.88;2.47;;;;;;;;;;5040627;28;20552;-69
2023/05/22 09:16:37;;;;;;;;;;;;;;;;;;5039528;28;20383;-67
2023/05/22 09:19:10;;;;;;;4.32;2.15;;;;;;;;;;5039354;28;19936;-67
2023/05/22 09:21:38;;;;;;;8.20;2.50;;;;;;;;;;5039127;28;20041;-67
2023/05/22 09:24:09;;;;;;;4.80;2.60;;;;;;;;;;5036898;28;20473;-68
2023/05/22 09:26:39;;;;;;;6.05;2.97;;;;;;;;;;5037554;28;20551;-67
2023/05/22 09:29:07;;;;;;;5.63;2.65;;;;;;;;;;5039337;28;20513;-67
2023/05/22 09:31:41;;;;;;;8.68;2.28;;;;;;;;;;5040063;28;20498;-65
2023/05/22 09:34:12;;;;;;;5.88;2.63;;;;;;;;;;5037968;28;20053;-65
2023/05/22 09:36:41;;;;;;;6.40;2.92;;;;;;;;;;5039417;28;20052;-66
2023/05/22 09:39:10;;;;;;;5.47;3.10;;;;;;;;;;5036903;28;20110;-66
2023/05/22 09:41:39;;;;;;;7.20;2.80;;;;;;;;;;5038544;28;20044;-67
2023/05/22 09:44:13;;;;;;;7.90;3.03;;;;;;;;;;5039690;28;20498;-69
2023/05/22 09:46:42;;;;;;;;;;;;;;;;;;5040087;28;20048;-66
2023/05/22 09:49:12;;;;;;;4.38;2.33;;;;;;;;;;5041559;28;20665;-66
2023/05/22 09:51:46;;;;;;;5.95;2.38;;;;;;;;;;5037931;28;20702;-66
2023/05/22 09:54:16;;;;;;;4.70;2.53;;;;;;;;;;5039126;28;20048;-67
2023/05/22 09:56:45;;;;;;;4.53;2.85;;;;;;;;;;5040495;28;20131;-68
2023/05/22 09:59:14;;;;;;;5.43;2.53;;;;;;;;;;5039682;28;20445;-68
2023/05/22 10:01:44;;;;;;;8.10;3.17;;;;;;;;;;5039638;28;20044;-68
2023/05/22 10:04:14;;;;;;;7.38;2.88;;;;;;;;;;5040286;28;20045;-67
2023/05/22 10:06:44;;;;;;;8.63;2.88;;;;;;;;;;5038817;28;20049;-67
2023/05/22 10:09:16;;;;;;;3.65;2.15;;;;;;;;;;5040902;28;20130;-67
2023/05/22 10:11:47;;;;;;;4.15;2.72;;;;;;;;;;5038286;28;20065;-67
2023/05/22 10:14:15;;;;;;;5.88;2.40;;;;;;;;;;5038651;28;20045;-66
2023/05/22 10:16:44;;;;;;;6.25;2.75;;;;;;;;;;5037573;28;20139;-68
2023/05/22 10:19:15;;;;;;;5.13;2.78;;;;;;;;;;5037235;28;20049;-67
2023/05/22 10:21:43;;;;;;;7.68;3.10;;;;;;;;;;5040400;28;20135;-67
2023/05/22 10:24:12;;;;;;;3.53;2.13;;;;;;;;;;5040029;28;20049;-67
2023/05/22 10:26:41;;;;;;;5.82;2.42;;;;;;;;;;5039190;28;20075;-67
2023/05/22 10:29:12;;;;;;;4.45;2.92;;;;;;;;;;5039417;28;20577;-67
2023/05/22 10:31:44;;;;;;;5.05;2.30;;;;;;;;;;5039763;28;20037;-67
2023/05/22 10:34:18;;;;;;;4.97;2.80;;;;;;;;;;5039760;28;20088;-64
2023/05/22 10:36:51;;;;;;;6.28;2.97;;;;;;;;;;5040831;28;21011;-64
2023/05/22 10:39:29;;;;;;;5.20;2.70;;;;;;;;;;5039562;28;20477;-64
2023/05/22 10:41:57;;;;;;;;;;;;;;;;;;5041505;28;20136;-64
2023/05/22 10:44:26;;;;;;;8.90;3.42;;;;;;;;;;5042332;28;19983;-63
2023/05/22 10:46:54;;;;;;;4.53;2.33;;;;;;;;;;5042369;28;20041;-64
2023/05/22 10:49:24;;;;;;;5.47;2.38;;;;;;;;;;5042474;28;20053;-65
2023/05/22 10:51:56;;;;;;;4.60;2.70;;;;;;;;;;5042799;28;20041;-66
2023/05/22 10:54:39;;;;;;;5.43;2.20;;;;;;;;;;5044142;28;20536;-65
2023/05/22 10:57:12;;;;;;;6.93;3.25;;;;;;;;;;5042979;28;20464;-65
2023/05/22 10:59:40;;;;;;;5.15;2.50;;;;;;;;;;5041539;28;20128;-65
2023/05/22 11:02:19;;;;;;;5.43;2.47;;;;;;;;;;5040580;28;20056;-66
2023/05/22 11:04:49;;;;;;;3.92;2.03;;;;;;;;;;5041809;28;20543;-66
2023/05/22 11:07:18;;;;;;;7.20;3.20;;;;;;;;;;5041505;28;20056;-64
2023/05/22 11:09:47;;;;;;;7.95;2.88;;;;;;;;;;5042558;28;20130;-66
2023/05/22 11:12:21;;;;;;;6.32;2.55;;;;;;;;;;5042695;28;20041;-65
2023/05/22 11:14:52;;;;;;;4.93;2.42;;;;;;;;;;5038848;28;20076;-65
2023/05/22 11:17:22;;;;;;;4.47;2.45;;;;;;;;;;5040735;28;20088;-66
2023/05/22 11:20:03;;;;;;;5.95;1.98;;;;;;;;;;5040875;28;20501;-65
2023/05/22 11:22:36;;;;;;;5.15;2.70;;;;;;;;;;5039673;28;20714;-66
2023/05/22 11:25:07;;;;;;;6.72;3.08;;;;;;;;;;5041407;28;20118;-65
2023/05/22 11:27:36;;;;;;;5.75;3.22;;;;;;;;;;5038417;28;20568;-64
2023/05/22 11:30:05;;;;;;;4.35;2.58;;;;;;;;;;5042911;28;20124;-65
2023/05/22 11:32:36;;;;;;;4.55;2.92;;;;;;;;;;5041082;28;20563;-64
2023/05/22 11:35:07;;;;;;;3.35;2.22;;;;;;;;;;5035295;28;20049;-65
2023/05/22 11:37:39;;;;;;;5.03;2.63;;;;;;;;;;5041144;28;20450;-66
2023/05/22 11:40:08;;;;;;;4.63;2.30;;;;;;;;;;5041409;28;20053;-65
2023/05/22 11:42:37;;;;;;;4.22;2.20;;;;;;;;;;5041575;28;20099;-65
2023/05/22 11:45:06;;;;;;;6.72;2.80;;;;;;;;;;5036367;28;20060;-65
2023/05/22 11:47:35;;;;;;;4.85;2.38;;;;;;;;;;5042378;28;20331;-65
2023/05/22 11:50:05;;;;;;;7.43;2.65;;;;;;;;;;5040718;28;20045;-65
2023/05/22 11:52:35;;;;;;;4.05;2.30;;;;;;;;;;5036868;28;20041;-65
2023/05/22 11:55:05;;;;;;;6.47;3.40;;;;;;;;;;5040276;28;20044;-67
2023/05/22 11:57:34;;;;;;;5.88;2.30;;;;;;;;;;5041326;28;20455;-66
2023/05/22 12:00:04;;;;;;;5.63;2.55;;;;;;;;;;5040570;28;20037;-65
2023/05/22 12:02:33;;;;;;;5.75;3.45;;;;;;;;;;5037842;28;20452;-65
2023/05/22 12:05:03;;;;;;;4.13;2.35;;;;;;;;;;5040458;28;20044;-65
2023/05/22 12:07:31;;;;;;;8.05;2.97;;;;;;;;;;5041548;28;20056;-65
2023/05/22 12:10:02;;;;;;;8.25;3.33;;;;;;;;;;5040539;28;20123;-65
2023/05/22 12:12:31;;;;;;;6.88;2.95;;;;;;;;;;5041552;28;20060;-66
2023/05/22 12:14:59;;;;;;;4.45;2.70;;;;;;;;;;5038802;28;20118;-65
2023/05/22 12:17:29;;;;;;;7.03;3.17;;;;;;;;;;5039126;28;20053;-64
2023/05/22 12:19:57;;;;;;;4.47;2.53;;;;;;;;;;5040417;28;20053;-65
2023/05/22 12:22:28;;;;;;;7.07;3.00;;;;;;;;;;5040625;28;20582;-64
2023/05/22 12:24:56;;;;;;;7.88;3.28;;;;;;;;;;5039420;28;20091;-65
2023/05/22 12:27:30;;;;;;;5.32;2.72;;;;;;;;;;5040835;28;20096;-66
2023/05/22 12:30:09;;;;;;;6.20;2.97;;;;;;;;;;5038599;28;20135;-67
2023/05/22 12:32:37;;;;;;;7.05;2.78;;;;;;;;;;5036190;28;20083;-66
2023/05/22 12:35:06;;;;;;;6.07;3.08;;;;;;;;;;5038291;28;20087;-65
2023/05/22 12:37:34;;;;;;;7.68;2.58;;;;;;;;;;5041088;28;20057;-65
2023/05/22 12:40:04;;;;;;;5.32;2.75;;;;;;;;;;5038612;28;20057;-65
2023/05/22 12:42:34;;;;;;;4.95;2.60;;;;;;;;;;5040562;28;20084;-65
2023/05/22 12:45:03;;;;;;;5.72;3.03;;;;;;;;;;5039901;28;20068;-66
2023/05/22 12:47:31;;;;;;;4.60;2.92;;;;;;;;;;5039472;28;20642;-66
2023/05/22 12:49:59;;;;;;;4.78;2.58;;;;;;;;;;5039550;28;20132;-65
2023/05/22 12:52:28;;;;;;;4.95;2.58;;;;;;;;;;5038939;28;20049;-66
2023/05/22 12:54:56;;;;;;;4.72;2.60;;;;;;;;;;5037528;28;20051;-66
2023/05/22 12:57:25;;;;;;;4.00;2.72;;;;;;;;;;5036798;28;20088;-65
2023/05/22 12:59:54;;;;;;;6.78;2.47;;;;;;;;;;5036366;28;20073;-65
2023/05/22 13:02:23;;;;;;;6.05;2.60;;;;;;;;;;5036355;28;20053;-65
2023/05/22 13:04:52;;;;;;;4.70;2.40;;;;;;;;;;5035902;28;20144;-65
2023/05/22 13:07:20;;;;;;;4.82;2.15;;;;;;;;;;5039776;28;20493;-65
2023/05/22 13:09:49;;;;;;;4.13;2.38;;;;;;;;;;5037839;28;20045;-65
2023/05/22 13:12:17;;;;;;;5.88;2.42;;;;;;;;;;5036427;28;20057;-68
2023/05/22 13:14:46;;;;;;;3.65;2.33;;;;;;;;;;5039783;28;20045;-69
2023/05/22 13:17:16;;;;;;;4.82;2.72;;;;;;;;;;5031930;28;20453;-68
2023/05/22 13:19:44;;;;;;;3.58;2.45;;;;;;;;;;5034538;28;20076;-68
2023/05/22 13:22:13;;;;;;;4.10;2.50;;;;;;;;;;5038606;28;20045;-68
2023/05/22 13:24:42;;;;;;;4.10;2.35;;;;;;;;;;5036300;28;20059;-70
2023/05/22 13:27:10;;;;;;;7.18;3.05;;;;;;;;;;5035552;28;20095;-70
2023/05/22 13:29:38;;;;;;;4.60;2.92;;;;;;;;;;5038982;28;20061;-68
2023/05/22 13:32:07;;;;;;;4.38;2.58;;;;;;;;;;5033346;28;20050;-68
2023/05/22 13:34:36;;;;;;;4.80;2.72;;;;;;;;;;5034029;28;20124;-68
2023/05/22 13:37:05;;;;;;;3.13;2.25;;;;;;;;;;5031669;28;20049;-67
2023/05/22 13:39:34;;;;;;;4.82;2.92;;;;;;;;;;5040215;28;20073;-67
2023/05/22 13:42:02;;;;;;;4.75;2.38;;;;;;;;;;5034967;28;20134;-67
2023/05/22 13:44:31;;;;;;;3.97;2.53;;;;;;;;;;5034846;28;20083;-67
2023/05/22 13:46:59;;;;;;;6.68;2.88;;;;;;;;;;5030032;28;20060;-67
2023/05/22 13:49:28;;;;;;;5.45;2.60;;;;;;;;;;5034052;28;20433;-68
2023/05/22 13:51:58;;;;;;;3.22;2.10;;;;;;;;;;5038968;28;20045;-67
2023/05/22 13:54:26;;;;;;;3.75;2.15;;;;;;;;;;5041006;28;20056;-67
2023/05/22 13:56:56;;;;;;;4.55;2.28;;;;;;;;;;5036899;28;20492;-67
2023/05/22 13:59:24;;;;;;;6.35;2.55;;;;;;;;;;5040656;28;20064;-67
2023/05/22 14:01:53;;;;;;;3.53;1.90;;;;;;;;;;5036481;28;20069;-66
2023/05/22 14:04:21;;;;;;;3.08;2.08;;;;;;;;;;5036577;28;20046;-67
2023/05/22 14:06:50;;;;;;;3.35;2.05;;;;;;;;;;5031840;28;20052;-68
2023/05/22 14:09:19;;;;;;;3.75;2.58;;;;;;;;;;5036720;28;20073;-67
2023/05/22 14:11:48;;;;;;;5.45;2.25;;;;;;;;;;5034506;28;20147;-67
2023/05/22 14:14:22;;;;;;;3.65;2.03;;;;;;;;;;5038611;28;20135;-69
2023/05/22 14:16:50;;;;;;;8.52;2.20;;;;;;;;;;5038401;28;20045;-67
2023/05/22 14:19:19;;;;;;;3.38;2.25;;;;;;;;;;5040306;28;20207;-67
2023/05/22 14:21:49;;;;;;;3.55;2.17;;;;;;;;;;5041542;28;20566;-69
2023/05/22 14:24:17;;;;;;;3.90;2.17;;;;;;;;;;5041922;28;20056;-67
2023/05/22 14:26:47;;;;;;;2.95;2.17;;;;;;;;;;5042234;28;21452;-67
2023/05/22 14:29:15;;;;;;;4.85;2.25;;;;;;;;;;5041936;28;20041;-67
2023/05/22 14:31:45;;;;;;;3.67;1.85;;;;;;;;;;5038511;28;20125;-66
2023/05/22 14:34:18;;;;;;;4.45;2.30;;;;;;;;;;5041464;28;21001;-66
2023/05/22 14:36:47;;;;;;;4.70;2.40;;;;;;;;;;5039460;28;20045;-67
2023/05/22 14:39:15;;;;;;;3.30;1.85;;;;;;;;;;5042419;28;20045;-67
2023/05/22 14:41:43;;;;;;;4.95;2.30;;;;;;;;;;5041391;28;20044;-68
2023/05/22 14:44:13;;;;;;;3.50;2.17;;;;;;;;;;5039635;28;20099;-67
2023/05/22 14:46:42;;;;;;;3.50;2.00;;;;;;;;;;5041234;28;20405;-67
2023/05/22 14:49:10;;;;;;;3.28;2.17;;;;;;;;;;5042093;28;20052;-67
2023/05/22 14:51:38;;;;;;;4.13;1.63;;;;;;;;;;5043427;28;20048;-66
2023/05/22 14:54:07;;;;;;;4.45;1.88;;;;;;;;;;5044539;28;20127;-67
2023/05/22 14:56:35;;;;;;;6.70;1.85;;;;;;;;;;5042557;28;20235;-66